• Join FlightAware (Why Join?)
  • Login
  • US Flag 
Gobble Gobble! 
10:15PM EST


 

Airport Tracker/Info


-or-


 

Live Flight TrackerFlight Track Log ✈ ASQ5529 ✈ 28-Apr-2013 ✈ KATL - KBQK

Flight Track Log - Related Links

Times and Time Zones

All times are in EDT time to prevent confusion due to time zone crossing. See the ASQ5529 flight status page for this flight to view local times or setup timezone preferences in your user account.

Time Position Orientation Groundspeed Altitude Reporting Facility
EDT Latitude Longitude Course Direction KTS MPH feet Rate Location/Type
09:38PM 33.6333 -84.4000 107° East 163 188 2,400  Level Atlanta TRACON
09:39PM 33.6167 -84.3333 107° East 248 285 4,400 2,280 Climbing Atlanta TRACON
09:39PM 33.5667 -84.2833 140° Southeast 275 316 6,800 1,920 Climbing Atlanta TRACON
09:41PM 33.4331 -84.2778 178° South 279 321 10,000 1,440 Climbing Atlanta Center
09:42PM 33.3475 -84.2403 160° South 303 349 11,100 1,860 Climbing Atlanta Center
09:43PM 33.2744 -84.1656 139° Southeast 329 379 13,800 2,460 Climbing Atlanta Center
09:44PM 33.2014 -84.0933 140° Southeast 339 390 16,100 1,980 Climbing Atlanta Center
09:45PM 33.1283 -84.0214 140° Southeast 344 396 17,800 1,380 Climbing Atlanta Center
09:46PM 33.0533 -83.9522 142° Southeast 344 396 18,900 1,200 Climbing Atlanta Center
09:47PM 32.9781 -83.8778 140° Southeast 349 402 20,200 1,200 Climbing Atlanta Center
09:48PM 32.9047 -83.7814 132° Southeast 364 419 21,400 1,080 Climbing Atlanta Center
09:49PM 32.8356 -83.6878 131° Southeast 375 432 22,400 780 Climbing Atlanta Center
09:50PM 32.7581 -83.6092 140° Southeast 375 432 23,000 300 Climbing Atlanta Center
09:51PM 32.6703 -83.5281 142° Southeast 380 437 23,000  Level Atlanta Center
09:52PM 32.5822 -83.4472 142° Southeast 393 452 23,000  Level Atlanta Center
09:54PM 32.4289 -83.3061 142° Southeast 428 493 23,000  Level Jacksonville Center
09:55PM 32.3394 -83.2269 143° Southeast 421 484 23,000  Level Jacksonville Center
09:56PM 32.2392 -83.1825 159° South 398 458 23,000  Level Jacksonville Center
09:57PM 32.1369 -83.1381 160° South 392 451 23,000  Level Jacksonville Center
09:58PM 32.0347 -83.0983 162° South 392 451 23,000  Level Jacksonville Center
09:59PM 31.9325 -83.0761 170° South 376 433 23,000 -120 Level Jacksonville Center
10:00PM 31.8325 -83.0369 162° South 376 433 22,800 -540 Descending Jacksonville Center
10:01PM 31.7344 -82.9708 150° Southeast 381 438 22,000 -720 Descending Jacksonville Center
10:02PM 31.6486 -82.8950 143° Southeast 391 450 21,400 -660 Descending Jacksonville Center
10:03PM 31.5653 -82.8072 138° Southeast 396 456 20,700 -720 Descending Jacksonville Center
10:04PM 31.4919 -82.7122 132° Southeast 396 456 20,000 -720 Descending Jacksonville Center
10:05PM 31.4167 -82.6150 132° Southeast 396 456 19,300 -900 Descending Jacksonville Center
10:06PM 31.3664 -82.5325 126° Southeast 396 456 18,300 -1,320 Descending Jacksonville Center
10:07PM 31.3014 -82.4258 125° Southeast 386 444 16,700 -1,620 Descending Jacksonville Center
10:08PM 31.2569 -82.3189 116° Southeast 375 432 15,100 -2,040 Descending Jacksonville Center
10:09PM 31.2564 -82.1950 90° East 359 413 12,700 -2,400 Descending Jacksonville Center
10:10PM 31.2600 -82.0808 88° East 359 413 10,400 -2,040 Descending Jacksonville Center
10:11PM 31.2592 -81.9692 90° East 311 358 8,700 -2,100 Descending Jacksonville Center
10:12PM 31.2606 -81.8864 89° East 294 338 6,300 -1,860 Descending Jacksonville Center
10:13PM 31.2619 -81.7942 89° East 284 327 5,000 -780 Descending Jacksonville Center
10:14PM 31.2611 -81.6969 91° East 272 313 4,800 -600 Descending Jacksonville Center
10:15PM 31.2478 -81.6339 104° East 215 247 3,900 -1,140 Descending Jacksonville Center
10:16PM 31.2389 -81.5756 100° East 177 204 2,600 -1,320 Descending Jacksonville Center
10:17PM 31.2364 -81.5269 93° East 159 183 1,300 -960 Descending Jacksonville Center
10:18PM 31.2336 -81.4786 94° East 152 175 700 -600 Descending Jacksonville Center